sensor_id;sensor_type;location;lat;lon;timestamp;P1;durP1;ratioP1;P2;durP2;ratioP2
5391;SDS011;2719;53.624;9.786;2022-12-31T00:01:22;7.90;;;2.43;;
5391;SDS011;2719;53.624;9.786;2022-12-31T00:03:50;2.80;;;1.90;;
5391;SDS011;2719;53.624;9.786;2022-12-31T00:06:19;2.93;;;2.07;;
5391;SDS011;2719;53.624;9.786;2022-12-31T00:08:47;5.23;;;2.60;;
5391;SDS011;2719;53.624;9.786;2022-12-31T00:11:15;4.10;;;2.60;;
5391;SDS011;2719;53.624;9.786;2022-12-31T00:13:41;4.60;;;2.27;;
5391;SDS011;2719;53.624;9.786;2022-12-31T00:16:11;2.30;;;2.03;;
5391;SDS011;2719;53.624;9.786;2022-12-31T00:18:41;2.07;;;1.80;;
5391;SDS011;2719;53.624;9.786;2022-12-31T00:21:09;3.10;;;2.10;;
5391;SDS011;2719;53.624;9.786;2022-12-31T00:23:37;4.13;;;2.50;;
5391;SDS011;2719;53.624;9.786;2022-12-31T00:26:05;10.23;;;3.30;;
5391;SDS011;2719;53.624;9.786;2022-12-31T00:28:33;3.00;;;2.43;;
5391;SDS011;2719;53.624;9.786;2022-12-31T00:31:07;3.23;;;2.47;;
5391;SDS011;2719;53.624;9.786;2022-12-31T00:33:35;2.87;;;2.43;;
5391;SDS011;2719;53.624;9.786;2022-12-31T00:36:06;3.13;;;2.00;;
5391;SDS011;2719;53.624;9.786;2022-12-31T00:38:35;14.03;;;2.97;;
5391;SDS011;2719;53.624;9.786;2022-12-31T00:41:03;4.30;;;2.93;;
5391;SDS011;2719;53.624;9.786;2022-12-31T00:43:31;3.07;;;1.90;;
5391;SDS011;2719;53.624;9.786;2022-12-31T00:45:58;4.13;;;1.90;;
5391;SDS011;2719;53.624;9.786;2022-12-31T00:48:25;5.27;;;2.50;;
5391;SDS011;2719;53.624;9.786;2022-12-31T00:50:53;1.70;;;1.33;;
5391;SDS011;2719;53.624;9.786;2022-12-31T00:53:20;2.93;;;2.10;;
5391;SDS011;2719;53.624;9.786;2022-12-31T00:55:48;2.53;;;1.83;;
5391;SDS011;2719;53.624;9.786;2022-12-31T00:58:16;2.17;;;1.47;;
5391;SDS011;2719;53.624;9.786;2022-12-31T01:00:43;2.03;;;1.80;;
5391;SDS011;2719;53.624;9.786;2022-12-31T01:03:10;3.60;;;2.17;;
5391;SDS011;2719;53.624;9.786;2022-12-31T01:05:36;3.00;;;1.83;;
5391;SDS011;2719;53.624;9.786;2022-12-31T01:08:04;4.43;;;2.63;;
5391;SDS011;2719;53.624;9.786;2022-12-31T01:10:31;2.60;;;1.80;;
5391;SDS011;2719;53.624;9.786;2022-12-31T01:13:19;3.50;;;2.27;;
5391;SDS011;2719;53.624;9.786;2022-12-31T01:15:46;2.60;;;2.13;;
5391;SDS011;2719;53.624;9.786;2022-12-31T01:18:13;7.30;;;2.30;;
5391;SDS011;2719;53.624;9.786;2022-12-31T01:20:40;4.17;;;2.93;;
5391;SDS011;2719;53.624;9.786;2022-12-31T01:23:08;5.50;;;2.00;;
5391;SDS011;2719;53.624;9.786;2022-12-31T01:25:36;2.90;;;2.30;;
5391;SDS011;2719;53.624;9.786;2022-12-31T01:28:04;3.90;;;2.70;;
5391;SDS011;2719;53.624;9.786;2022-12-31T01:30:32;4.03;;;1.80;;
5391;SDS011;2719;53.624;9.786;2022-12-31T01:32:59;2.63;;;1.80;;
5391;SDS011;2719;53.624;9.786;2022-12-31T01:35:26;2.53;;;2.00;;
5391;SDS011;2719;53.624;9.786;2022-12-31T01:37:52;2.27;;;1.80;;
5391;SDS011;2719;53.624;9.786;2022-12-31T01:40:19;4.30;;;1.93;;
5391;SDS011;2719;53.624;9.786;2022-12-31T01:42:52;3.87;;;2.17;;
5391;SDS011;2719;53.624;9.786;2022-12-31T01:45:19;3.10;;;1.83;;
5391;SDS011;2719;53.624;9.786;2022-12-31T01:47:48;2.53;;;1.90;;
5391;SDS011;2719;53.624;9.786;2022-12-31T01:50:17;4.00;;;2.00;;
5391;SDS011;2719;53.624;9.786;2022-12-31T01:52:49;2.57;;;1.73;;
5391;SDS011;2719;53.624;9.786;2022-12-31T01:55:17;2.70;;;1.43;;
5391;SDS011;2719;53.624;9.786;2022-12-31T01:57:50;1.83;;;1.50;;
5391;SDS011;2719;53.624;9.786;2022-12-31T02:00:20;4.17;;;2.30;;
5391;SDS011;2719;53.624;9.786;2022-12-31T02:02:48;3.20;;;2.00;;
5391;SDS011;2719;53.624;9.786;2022-12-31T02:05:18;4.57;;;1.73;;
5391;SDS011;2719;53.624;9.786;2022-12-31T02:07:49;6.17;;;2.50;;
5391;SDS011;2719;53.624;9.786;2022-12-31T02:10:17;1.87;;;1.43;;
5391;SDS011;2719;53.624;9.786;2022-12-31T02:12:43;2.40;;;1.60;;
5391;SDS011;2719;53.624;9.786;2022-12-31T02:15:10;3.93;;;1.97;;
5391;SDS011;2719;53.624;9.786;2022-12-31T02:17:39;3.20;;;1.60;;
5391;SDS011;2719;53.624;9.786;2022-12-31T02:23:39;2.70;;;1.70;;
5391;SDS011;2719;53.624;9.786;2022-12-31T02:26:27;3.33;;;2.00;;
5391;SDS011;2719;53.624;9.786;2022-12-31T02:32:01;7.17;;;1.77;;
5391;SDS011;2719;53.624;9.786;2022-12-31T02:34:32;2.20;;;1.77;;
5391;SDS011;2719;53.624;9.786;2022-12-31T02:37:03;5.27;;;1.20;;
5391;SDS011;2719;53.624;9.786;2022-12-31T02:39:36;2.10;;;1.43;;
5391;SDS011;2719;53.624;9.786;2022-12-31T02:42:04;5.73;;;2.23;;
5391;SDS011;2719;53.624;9.786;2022-12-31T02:44:32;2.67;;;1.90;;
5391;SDS011;2719;53.624;9.786;2022-12-31T02:47:05;3.00;;;1.57;;
5391;SDS011;2719;53.624;9.786;2022-12-31T02:49:45;3.17;;;2.30;;
5391;SDS011;2719;53.624;9.786;2022-12-31T02:52:23;1.60;;;1.37;;
5391;SDS011;2719;53.624;9.786;2022-12-31T02:55:01;2.17;;;1.37;;
5391;SDS011;2719;53.624;9.786;2022-12-31T02:57:33;2.10;;;1.67;;
5391;SDS011;2719;53.624;9.786;2022-12-31T03:00:05;4.47;;;1.73;;
5391;SDS011;2719;53.624;9.786;2022-12-31T03:02:53;2.67;;;1.60;;
5391;SDS011;2719;53.624;9.786;2022-12-31T03:05:22;5.10;;;1.77;;
5391;SDS011;2719;53.624;9.786;2022-12-31T03:07:51;4.40;;;1.37;;
5391;SDS011;2719;53.624;9.786;2022-12-31T03:10:19;1.93;;;1.57;;
5391;SDS011;2719;53.624;9.786;2022-12-31T03:12:46;3.70;;;1.50;;
5391;SDS011;2719;53.624;9.786;2022-12-31T03:15:13;2.40;;;1.20;;
5391;SDS011;2719;53.624;9.786;2022-12-31T03:17:46;3.30;;;1.47;;
5391;SDS011;2719;53.624;9.786;2022-12-31T03:20:18;1.63;;;1.00;;
5391;SDS011;2719;53.624;9.786;2022-12-31T03:23:05;2.10;;;1.00;;
5391;SDS011;2719;53.624;9.786;2022-12-31T03:25:33;3.40;;;1.50;;
5391;SDS011;2719;53.624;9.786;2022-12-31T03:27:59;2.50;;;1.10;;
5391;SDS011;2719;53.624;9.786;2022-12-31T03:30:27;1.30;;;0.97;;
5391;SDS011;2719;53.624;9.786;2022-12-31T03:32:55;2.67;;;1.13;;
5391;SDS011;2719;53.624;9.786;2022-12-31T03:35:24;1.07;;;0.97;;
5391;SDS011;2719;53.624;9.786;2022-12-31T03:37:53;1.17;;;0.70;;
5391;SDS011;2719;53.624;9.786;2022-12-31T03:40:21;2.50;;;1.23;;
5391;SDS011;2719;53.624;9.786;2022-12-31T03:42:49;2.23;;;0.80;;
5391;SDS011;2719;53.624;9.786;2022-12-31T03:45:16;1.50;;;1.03;;
5391;SDS011;2719;53.624;9.786;2022-12-31T03:47:43;2.10;;;0.70;;
5391;SDS011;2719;53.624;9.786;2022-12-31T03:53:01;1.50;;;0.70;;
5391;SDS011;2719;53.624;9.786;2022-12-31T03:55:28;2.27;;;0.70;;
5391;SDS011;2719;53.624;9.786;2022-12-31T03:57:54;1.97;;;0.70;;
5391;SDS011;2719;53.624;9.786;2022-12-31T04:00:21;1.70;;;0.80;;
5391;SDS011;2719;53.624;9.786;2022-12-31T04:02:48;2.97;;;1.13;;
5391;SDS011;2719;53.624;9.786;2022-12-31T04:05:15;5.67;;;0.90;;
5391;SDS011;2719;53.624;9.786;2022-12-31T04:07:44;3.13;;;1.13;;
5391;SDS011;2719;53.624;9.786;2022-12-31T04:10:12;1.57;;;0.93;;
5391;SDS011;2719;53.624;9.786;2022-12-31T04:12:41;2.77;;;0.87;;
5391;SDS011;2719;53.624;9.786;2022-12-31T04:15:08;1.70;;;0.77;;
5391;SDS011;2719;53.624;9.786;2022-12-31T04:17:37;2.73;;;1.00;;
5391;SDS011;2719;53.624;9.786;2022-12-31T04:20:03;1.00;;;0.73;;
5391;SDS011;2719;53.624;9.786;2022-12-31T04:22:31;2.50;;;1.20;;
5391;SDS011;2719;53.624;9.786;2022-12-31T04:24:59;2.40;;;1.30;;
5391;SDS011;2719;53.624;9.786;2022-12-31T04:27:26;2.80;;;1.00;;
5391;SDS011;2719;53.624;9.786;2022-12-31T04:29:52;3.30;;;1.00;;
5391;SDS011;2719;53.624;9.786;2022-12-31T04:32:19;1.50;;;0.90;;
5391;SDS011;2719;53.624;9.786;2022-12-31T04:34:50;2.80;;;1.40;;
5391;SDS011;2719;53.624;9.786;2022-12-31T04:37:16;3.77;;;0.93;;
5391;SDS011;2719;53.624;9.786;2022-12-31T04:39:43;2.93;;;1.00;;
5391;SDS011;2719;53.624;9.786;2022-12-31T04:42:11;1.17;;;0.63;;
5391;SDS011;2719;53.624;9.786;2022-12-31T04:44:37;1.40;;;0.80;;
5391;SDS011;2719;53.624;9.786;2022-12-31T04:47:04;1.30;;;0.70;;
5391;SDS011;2719;53.624;9.786;2022-12-31T04:49:31;2.30;;;0.90;;
5391;SDS011;2719;53.624;9.786;2022-12-31T04:51:57;1.43;;;0.80;;
5391;SDS011;2719;53.624;9.786;2022-12-31T04:54:24;1.37;;;0.90;;
5391;SDS011;2719;53.624;9.786;2022-12-31T04:56:51;2.60;;;0.87;;
5391;SDS011;2719;53.624;9.786;2022-12-31T04:59:19;4.87;;;1.07;;
5391;SDS011;2719;53.624;9.786;2022-12-31T05:01:46;1.13;;;0.83;;
5391;SDS011;2719;53.624;9.786;2022-12-31T05:04:13;5.20;;;0.90;;
5391;SDS011;2719;53.624;9.786;2022-12-31T05:06:40;2.30;;;0.80;;
5391;SDS011;2719;53.624;9.786;2022-12-31T05:09:06;3.90;;;1.10;;
5391;SDS011;2719;53.624;9.786;2022-12-31T05:11:33;1.20;;;0.60;;
5391;SDS011;2719;53.624;9.786;2022-12-31T05:14:01;1.10;;;0.70;;
5391;SDS011;2719;53.624;9.786;2022-12-31T05:16:29;1.83;;;0.70;;
5391;SDS011;2719;53.624;9.786;2022-12-31T05:18:56;2.10;;;0.70;;
5391;SDS011;2719;53.624;9.786;2022-12-31T05:21:23;1.83;;;0.60;;
5391;SDS011;2719;53.624;9.786;2022-12-31T05:23:49;2.23;;;0.60;;
5391;SDS011;2719;53.624;9.786;2022-12-31T05:26:16;3.33;;;1.23;;
5391;SDS011;2719;53.624;9.786;2022-12-31T05:28:43;0.80;;;0.57;;
5391;SDS011;2719;53.624;9.786;2022-12-31T05:31:10;3.47;;;0.50;;
5391;SDS011;2719;53.624;9.786;2022-12-31T05:33:38;2.00;;;0.70;;
5391;SDS011;2719;53.624;9.786;2022-12-31T05:38:44;1.20;;;0.60;;
5391;SDS011;2719;53.624;9.786;2022-12-31T05:41:11;1.37;;;0.50;;
5391;SDS011;2719;53.624;9.786;2022-12-31T05:43:37;1.60;;;0.70;;
5391;SDS011;2719;53.624;9.786;2022-12-31T05:46:04;3.67;;;0.53;;
5391;SDS011;2719;53.624;9.786;2022-12-31T05:48:31;1.60;;;0.57;;
5391;SDS011;2719;53.624;9.786;2022-12-31T05:51:06;0.80;;;0.50;;
5391;SDS011;2719;53.624;9.786;2022-12-31T05:53:32;1.00;;;0.47;;
5391;SDS011;2719;53.624;9.786;2022-12-31T05:55:59;5.13;;;0.60;;
5391;SDS011;2719;53.624;9.786;2022-12-31T05:58:26;4.50;;;0.60;;
5391;SDS011;2719;53.624;9.786;2022-12-31T06:00:52;1.67;;;0.70;;
5391;SDS011;2719;53.624;9.786;2022-12-31T06:03:19;1.20;;;0.70;;
5391;SDS011;2719;53.624;9.786;2022-12-31T06:05:46;1.00;;;0.60;;
5391;SDS011;2719;53.624;9.786;2022-12-31T06:08:14;1.53;;;0.60;;
5391;SDS011;2719;53.624;9.786;2022-12-31T06:10:40;1.20;;;0.60;;
5391;SDS011;2719;53.624;9.786;2022-12-31T06:13:07;0.90;;;0.50;;
5391;SDS011;2719;53.624;9.786;2022-12-31T06:15:35;0.80;;;0.57;;
5391;SDS011;2719;53.624;9.786;2022-12-31T06:18:03;2.00;;;0.70;;
5391;SDS011;2719;53.624;9.786;2022-12-31T06:20:30;1.00;;;0.50;;
5391;SDS011;2719;53.624;9.786;2022-12-31T06:22:56;0.80;;;0.50;;
5391;SDS011;2719;53.624;9.786;2022-12-31T06:25:25;1.57;;;0.50;;
5391;SDS011;2719;53.624;9.786;2022-12-31T06:27:51;0.80;;;0.50;;
5391;SDS011;2719;53.624;9.786;2022-12-31T06:30:18;0.80;;;0.40;;
5391;SDS011;2719;53.624;9.786;2022-12-31T06:32:45;0.80;;;0.50;;
5391;SDS011;2719;53.624;9.786;2022-12-31T06:35:11;2.23;;;0.60;;
5391;SDS011;2719;53.624;9.786;2022-12-31T06:37:38;0.80;;;0.40;;
5391;SDS011;2719;53.624;9.786;2022-12-31T06:40:05;0.90;;;0.40;;
5391;SDS011;2719;53.624;9.786;2022-12-31T06:42:34;1.10;;;0.40;;
5391;SDS011;2719;53.624;9.786;2022-12-31T06:45:01;0.90;;;0.43;;
5391;SDS011;2719;53.624;9.786;2022-12-31T06:47:28;0.90;;;0.37;;
5391;SDS011;2719;53.624;9.786;2022-12-31T06:49:54;0.70;;;0.40;;
5391;SDS011;2719;53.624;9.786;2022-12-31T06:52:21;1.00;;;0.60;;
5391;SDS011;2719;53.624;9.786;2022-12-31T06:54:48;0.70;;;0.30;;
5391;SDS011;2719;53.624;9.786;2022-12-31T06:57:15;0.93;;;0.30;;
5391;SDS011;2719;53.624;9.786;2022-12-31T06:59:44;2.70;;;0.40;;
5391;SDS011;2719;53.624;9.786;2022-12-31T07:02:37;1.53;;;0.40;;
5391;SDS011;2719;53.624;9.786;2022-12-31T07:05:26;0.97;;;0.30;;
5391;SDS011;2719;53.624;9.786;2022-12-31T07:08:04;0.70;;;0.30;;
5391;SDS011;2719;53.624;9.786;2022-12-31T07:10:42;2.90;;;0.40;;
5391;SDS011;2719;53.624;9.786;2022-12-31T07:13:34;0.70;;;0.30;;
5391;SDS011;2719;53.624;9.786;2022-12-31T07:16:35;0.83;;;0.47;;
5391;SDS011;2719;53.624;9.786;2022-12-31T07:19:16;1.50;;;0.30;;
5391;SDS011;2719;53.624;9.786;2022-12-31T07:21:50;0.80;;;0.30;;
5391;SDS011;2719;53.624;9.786;2022-12-31T07:24:19;0.70;;;0.30;;
5391;SDS011;2719;53.624;9.786;2022-12-31T07:26:49;1.63;;;0.30;;
5391;SDS011;2719;53.624;9.786;2022-12-31T07:29:28;1.10;;;0.30;;
5391;SDS011;2719;53.624;9.786;2022-12-31T07:32:06;0.80;;;0.30;;
5391;SDS011;2719;53.624;9.786;2022-12-31T07:34:45;3.80;;;0.40;;
5391;SDS011;2719;53.624;9.786;2022-12-31T07:37:23;1.33;;;0.30;;
5391;SDS011;2719;53.624;9.786;2022-12-31T07:40:00;0.70;;;0.30;;
5391;SDS011;2719;53.624;9.786;2022-12-31T07:42:43;0.80;;;0.30;;
5391;SDS011;2719;53.624;9.786;2022-12-31T07:45:24;0.70;;;0.30;;
5391;SDS011;2719;53.624;9.786;2022-12-31T07:47:58;1.47;;;0.37;;
5391;SDS011;2719;53.624;9.786;2022-12-31T07:50:25;0.80;;;0.30;;
5391;SDS011;2719;53.624;9.786;2022-12-31T07:52:52;1.13;;;0.30;;
5391;SDS011;2719;53.624;9.786;2022-12-31T07:55:19;0.70;;;0.30;;
5391;SDS011;2719;53.624;9.786;2022-12-31T07:57:47;0.70;;;0.30;;
5391;SDS011;2719;53.624;9.786;2022-12-31T08:00:21;0.80;;;0.30;;
5391;SDS011;2719;53.624;9.786;2022-12-31T08:02:55;0.70;;;0.30;;
5391;SDS011;2719;53.624;9.786;2022-12-31T08:05:37;0.80;;;0.30;;
5391;SDS011;2719;53.624;9.786;2022-12-31T08:08:32;1.70;;;0.33;;
5391;SDS011;2719;53.624;9.786;2022-12-31T08:11:06;0.70;;;0.40;;
5391;SDS011;2719;53.624;9.786;2022-12-31T08:13:39;1.43;;;0.50;;
5391;SDS011;2719;53.624;9.786;2022-12-31T08:16:08;0.80;;;0.40;;
5391;SDS011;2719;53.624;9.786;2022-12-31T08:18:38;3.60;;;0.83;;
5391;SDS011;2719;53.624;9.786;2022-12-31T08:21:08;1.27;;;0.33;;
5391;SDS011;2719;53.624;9.786;2022-12-31T08:23:43;0.77;;;0.30;;
5391;SDS011;2719;53.624;9.786;2022-12-31T08:26:17;0.90;;;0.40;;
5391;SDS011;2719;53.624;9.786;2022-12-31T08:28:54;0.90;;;0.40;;
5391;SDS011;2719;53.624;9.786;2022-12-31T08:31:28;0.70;;;0.30;;
5391;SDS011;2719;53.624;9.786;2022-12-31T08:34:05;1.33;;;0.30;;
5391;SDS011;2719;53.624;9.786;2022-12-31T08:36:38;1.17;;;0.40;;
5391;SDS011;2719;53.624;9.786;2022-12-31T08:39:15;0.90;;;0.40;;
5391;SDS011;2719;53.624;9.786;2022-12-31T08:41:51;0.80;;;0.33;;
5391;SDS011;2719;53.624;9.786;2022-12-31T08:44:22;0.70;;;0.30;;
5391;SDS011;2719;53.624;9.786;2022-12-31T08:46:59;7.87;;;0.30;;
5391;SDS011;2719;53.624;9.786;2022-12-31T08:49:36;0.80;;;0.40;;
5391;SDS011;2719;53.624;9.786;2022-12-31T08:52:05;1.20;;;0.30;;
5391;SDS011;2719;53.624;9.786;2022-12-31T08:54:39;0.70;;;0.30;;
5391;SDS011;2719;53.624;9.786;2022-12-31T08:57:08;0.70;;;0.40;;
5391;SDS011;2719;53.624;9.786;2022-12-31T08:59:47;0.70;;;0.40;;
5391;SDS011;2719;53.624;9.786;2022-12-31T09:05:13;0.70;;;0.30;;
5391;SDS011;2719;53.624;9.786;2022-12-31T09:07:47;0.80;;;0.30;;
5391;SDS011;2719;53.624;9.786;2022-12-31T09:10:23;2.20;;;0.40;;
5391;SDS011;2719;53.624;9.786;2022-12-31T09:12:57;0.70;;;0.37;;
5391;SDS011;2719;53.624;9.786;2022-12-31T09:15:35;0.70;;;0.30;;
5391;SDS011;2719;53.624;9.786;2022-12-31T09:18:06;0.80;;;0.40;;
5391;SDS011;2719;53.624;9.786;2022-12-31T09:20:36;0.80;;;0.40;;
5391;SDS011;2719;53.624;9.786;2022-12-31T09:23:03;0.90;;;0.37;;
5391;SDS011;2719;53.624;9.786;2022-12-31T09:25:30;0.80;;;0.40;;
5391;SDS011;2719;53.624;9.786;2022-12-31T09:28:03;0.70;;;0.30;;
5391;SDS011;2719;53.624;9.786;2022-12-31T09:30:41;0.93;;;0.30;;
5391;SDS011;2719;53.624;9.786;2022-12-31T09:33:15;1.00;;;0.40;;
5391;SDS011;2719;53.624;9.786;2022-12-31T09:35:56;0.70;;;0.40;;
5391;SDS011;2719;53.624;9.786;2022-12-31T09:38:26;0.80;;;0.40;;
5391;SDS011;2719;53.624;9.786;2022-12-31T09:41:10;1.57;;;0.40;;
5391;SDS011;2719;53.624;9.786;2022-12-31T09:50:01;0.70;;;0.40;;
5391;SDS011;2719;53.624;9.786;2022-12-31T09:53:02;0.70;;;0.40;;
5391;SDS011;2719;53.624;9.786;2022-12-31T09:55:42;0.80;;;0.47;;
5391;SDS011;2719;53.624;9.786;2022-12-31T09:58:21;1.10;;;0.50;;
5391;SDS011;2719;53.624;9.786;2022-12-31T10:01:00;1.00;;;0.50;;
5391;SDS011;2719;53.624;9.786;2022-12-31T10:03:38;1.57;;;0.70;;
5391;SDS011;2719;53.624;9.786;2022-12-31T10:06:26;1.10;;;0.73;;
5391;SDS011;2719;53.624;9.786;2022-12-31T10:09:05;1.10;;;0.50;;
5391;SDS011;2719;53.624;9.786;2022-12-31T10:12:02;1.27;;;0.57;;
5391;SDS011;2719;53.624;9.786;2022-12-31T10:14:44;0.80;;;0.53;;
5391;SDS011;2719;53.624;9.786;2022-12-31T10:17:26;0.80;;;0.50;;
5391;SDS011;2719;53.624;9.786;2022-12-31T10:20:09;0.80;;;0.60;;
5391;SDS011;2719;53.624;9.786;2022-12-31T10:23:00;1.33;;;0.50;;
5391;SDS011;2719;53.624;9.786;2022-12-31T10:25:45;0.70;;;0.40;;
5391;SDS011;2719;53.624;9.786;2022-12-31T10:28:34;8.23;;;0.70;;
5391;SDS011;2719;53.624;9.786;2022-12-31T10:31:12;2.90;;;1.73;;
5391;SDS011;2719;53.624;9.786;2022-12-31T10:33:41;0.80;;;0.50;;
5391;SDS011;2719;53.624;9.786;2022-12-31T10:36:14;0.90;;;0.40;;
5391;SDS011;2719;53.624;9.786;2022-12-31T10:38:48;1.30;;;0.67;;
5391;SDS011;2719;53.624;9.786;2022-12-31T10:44:44;0.77;;;0.47;;
5391;SDS011;2719;53.624;9.786;2022-12-31T10:50:41;3.33;;;0.80;;
5391;SDS011;2719;53.624;9.786;2022-12-31T10:56:48;0.70;;;0.40;;
5391;SDS011;2719;53.624;9.786;2022-12-31T10:59:52;0.70;;;0.40;;
5391;SDS011;2719;53.624;9.786;2022-12-31T11:08:43;2.23;;;0.60;;
5391;SDS011;2719;53.624;9.786;2022-12-31T11:11:32;0.80;;;0.50;;
5391;SDS011;2719;53.624;9.786;2022-12-31T11:14:26;1.10;;;0.60;;
5391;SDS011;2719;53.624;9.786;2022-12-31T11:20:14;0.73;;;0.47;;
5391;SDS011;2719;53.624;9.786;2022-12-31T11:23:08;0.70;;;0.40;;
5391;SDS011;2719;53.624;9.786;2022-12-31T11:25:47;0.80;;;0.40;;
5391;SDS011;2719;53.624;9.786;2022-12-31T11:28:36;1.43;;;0.50;;
5391;SDS011;2719;53.624;9.786;2022-12-31T11:31:28;1.03;;;0.40;;
5391;SDS011;2719;53.624;9.786;2022-12-31T11:34:16;1.83;;;0.60;;
5391;SDS011;2719;53.624;9.786;2022-12-31T11:37:03;1.00;;;0.73;;
5391;SDS011;2719;53.624;9.786;2022-12-31T11:39:44;0.80;;;0.50;;
5391;SDS011;2719;53.624;9.786;2022-12-31T11:42:17;0.70;;;0.40;;
5391;SDS011;2719;53.624;9.786;2022-12-31T11:44:48;1.40;;;0.70;;
5391;SDS011;2719;53.624;9.786;2022-12-31T11:47:26;1.10;;;0.40;;
5391;SDS011;2719;53.624;9.786;2022-12-31T11:50:19;1.47;;;0.60;;
5391;SDS011;2719;53.624;9.786;2022-12-31T11:52:53;1.10;;;0.50;;
5391;SDS011;2719;53.624;9.786;2022-12-31T11:55:36;1.10;;;0.60;;
5391;SDS011;2719;53.624;9.786;2022-12-31T11:58:13;3.87;;;0.50;;
5391;SDS011;2719;53.624;9.786;2022-12-31T12:00:43;0.90;;;0.40;;
5391;SDS011;2719;53.624;9.786;2022-12-31T12:03:17;3.10;;;0.50;;
5391;SDS011;2719;53.624;9.786;2022-12-31T12:05:45;1.17;;;0.50;;
5391;SDS011;2719;53.624;9.786;2022-12-31T12:08:12;1.00;;;0.40;;
5391;SDS011;2719;53.624;9.786;2022-12-31T12:10:41;1.00;;;0.40;;
5391;SDS011;2719;53.624;9.786;2022-12-31T12:13:12;0.80;;;0.40;;
5391;SDS011;2719;53.624;9.786;2022-12-31T12:15:47;0.80;;;0.40;;
5391;SDS011;2719;53.624;9.786;2022-12-31T12:18:22;1.60;;;0.70;;
5391;SDS011;2719;53.624;9.786;2022-12-31T12:20:59;0.90;;;0.30;;
5391;SDS011;2719;53.624;9.786;2022-12-31T12:23:27;0.80;;;0.40;;
5391;SDS011;2719;53.624;9.786;2022-12-31T12:25:54;0.90;;;0.40;;
5391;SDS011;2719;53.624;9.786;2022-12-31T12:28:22;1.10;;;0.50;;
5391;SDS011;2719;53.624;9.786;2022-12-31T12:30:55;5.90;;;0.40;;
5391;SDS011;2719;53.624;9.786;2022-12-31T12:33:24;1.87;;;0.37;;
5391;SDS011;2719;53.624;9.786;2022-12-31T12:35:53;1.93;;;0.50;;
5391;SDS011;2719;53.624;9.786;2022-12-31T12:38:31;1.57;;;0.40;;
5391;SDS011;2719;53.624;9.786;2022-12-31T12:40:59;0.90;;;0.50;;
5391;SDS011;2719;53.624;9.786;2022-12-31T12:43:27;1.00;;;0.50;;
5391;SDS011;2719;53.624;9.786;2022-12-31T12:45:57;1.10;;;0.40;;
5391;SDS011;2719;53.624;9.786;2022-12-31T12:48:29;0.73;;;0.33;;
5391;SDS011;2719;53.624;9.786;2022-12-31T12:51:01;1.80;;;0.50;;
5391;SDS011;2719;53.624;9.786;2022-12-31T12:53:38;0.80;;;0.40;;
5391;SDS011;2719;53.624;9.786;2022-12-31T12:56:16;0.70;;;0.30;;
5391;SDS011;2719;53.624;9.786;2022-12-31T12:58:54;2.40;;;0.40;;
5391;SDS011;2719;53.624;9.786;2022-12-31T13:01:36;0.70;;;0.30;;
5391;SDS011;2719;53.624;9.786;2022-12-31T13:04:20;0.70;;;0.30;;
5391;SDS011;2719;53.624;9.786;2022-12-31T13:07:04;1.40;;;0.40;;
5391;SDS011;2719;53.624;9.786;2022-12-31T13:09:45;1.20;;;0.40;;
5391;SDS011;2719;53.624;9.786;2022-12-31T13:12:19;1.67;;;0.50;;
5391;SDS011;2719;53.624;9.786;2022-12-31T13:14:53;1.13;;;0.50;;
5391;SDS011;2719;53.624;9.786;2022-12-31T13:17:29;1.80;;;0.50;;
5391;SDS011;2719;53.624;9.786;2022-12-31T13:20:07;3.20;;;0.60;;
5391;SDS011;2719;53.624;9.786;2022-12-31T13:22:42;1.40;;;0.40;;
5391;SDS011;2719;53.624;9.786;2022-12-31T13:25:18;0.93;;;0.40;;
5391;SDS011;2719;53.624;9.786;2022-12-31T13:27:51;0.90;;;0.30;;
5391;SDS011;2719;53.624;9.786;2022-12-31T13:30:22;1.20;;;0.40;;
5391;SDS011;2719;53.624;9.786;2022-12-31T13:32:51;6.57;;;0.40;;
5391;SDS011;2719;53.624;9.786;2022-12-31T13:35:24;0.70;;;0.37;;
5391;SDS011;2719;53.624;9.786;2022-12-31T13:37:55;0.80;;;0.40;;
5391;SDS011;2719;53.624;9.786;2022-12-31T13:40:28;0.93;;;0.40;;
5391;SDS011;2719;53.624;9.786;2022-12-31T13:42:59;4.53;;;0.47;;
5391;SDS011;2719;53.624;9.786;2022-12-31T13:45:30;0.70;;;0.30;;
5391;SDS011;2719;53.624;9.786;2022-12-31T13:48:03;0.70;;;0.40;;
5391;SDS011;2719;53.624;9.786;2022-12-31T13:50:35;1.33;;;0.37;;
5391;SDS011;2719;53.624;9.786;2022-12-31T13:53:11;1.00;;;0.30;;
5391;SDS011;2719;53.624;9.786;2022-12-31T13:55:43;0.80;;;0.30;;
5391;SDS011;2719;53.624;9.786;2022-12-31T13:58:15;3.70;;;0.40;;
5391;SDS011;2719;53.624;9.786;2022-12-31T14:00:48;3.33;;;0.70;;
5391;SDS011;2719;53.624;9.786;2022-12-31T14:03:18;0.70;;;0.30;;
5391;SDS011;2719;53.624;9.786;2022-12-31T14:05:50;1.17;;;0.40;;
5391;SDS011;2719;53.624;9.786;2022-12-31T14:08:22;1.07;;;0.30;;
5391;SDS011;2719;53.624;9.786;2022-12-31T14:10:52;3.67;;;0.40;;
5391;SDS011;2719;53.624;9.786;2022-12-31T14:13:37;0.70;;;0.40;;
5391;SDS011;2719;53.624;9.786;2022-12-31T14:16:15;0.77;;;0.40;;
5391;SDS011;2719;53.624;9.786;2022-12-31T14:18:46;1.53;;;0.40;;
5391;SDS011;2719;53.624;9.786;2022-12-31T14:21:22;2.07;;;0.40;;
5391;SDS011;2719;53.624;9.786;2022-12-31T14:23:56;0.77;;;0.40;;
5391;SDS011;2719;53.624;9.786;2022-12-31T14:26:27;0.80;;;0.40;;
5391;SDS011;2719;53.624;9.786;2022-12-31T14:29:01;1.20;;;0.40;;
5391;SDS011;2719;53.624;9.786;2022-12-31T14:31:49;1.43;;;0.50;;
5391;SDS011;2719;53.624;9.786;2022-12-31T14:34:28;1.33;;;0.70;;
5391;SDS011;2719;53.624;9.786;2022-12-31T14:37:01;2.77;;;0.67;;
5391;SDS011;2719;53.624;9.786;2022-12-31T14:39:41;1.30;;;0.50;;
5391;SDS011;2719;53.624;9.786;2022-12-31T14:42:16;0.80;;;0.50;;
5391;SDS011;2719;53.624;9.786;2022-12-31T14:44:54;0.93;;;0.57;;
5391;SDS011;2719;53.624;9.786;2022-12-31T14:47:30;0.93;;;0.47;;
5391;SDS011;2719;53.624;9.786;2022-12-31T14:50:08;5.87;;;0.67;;
5391;SDS011;2719;53.624;9.786;2022-12-31T14:52:46;4.53;;;0.57;;
5391;SDS011;2719;53.624;9.786;2022-12-31T14:55:21;1.37;;;0.53;;
5391;SDS011;2719;53.624;9.786;2022-12-31T14:57:51;1.10;;;0.50;;
5391;SDS011;2719;53.624;9.786;2022-12-31T15:00:23;1.17;;;0.60;;
5391;SDS011;2719;53.624;9.786;2022-12-31T15:02:53;3.27;;;0.50;;
5391;SDS011;2719;53.624;9.786;2022-12-31T15:05:22;2.10;;;0.50;;
5391;SDS011;2719;53.624;9.786;2022-12-31T15:07:53;2.27;;;0.97;;
5391;SDS011;2719;53.624;9.786;2022-12-31T15:10:43;4.10;;;0.53;;
5391;SDS011;2719;53.624;9.786;2022-12-31T15:13:20;3.13;;;0.50;;
5391;SDS011;2719;53.624;9.786;2022-12-31T15:16:05;1.27;;;0.60;;
5391;SDS011;2719;53.624;9.786;2022-12-31T15:18:58;2.10;;;0.50;;
5391;SDS011;2719;53.624;9.786;2022-12-31T15:21:47;0.90;;;0.50;;
5391;SDS011;2719;53.624;9.786;2022-12-31T15:24:24;2.40;;;0.60;;
5391;SDS011;2719;53.624;9.786;2022-12-31T15:26:56;5.30;;;0.87;;
5391;SDS011;2719;53.624;9.786;2022-12-31T15:29:26;0.80;;;0.47;;
5391;SDS011;2719;53.624;9.786;2022-12-31T15:31:55;1.70;;;0.70;;
5391;SDS011;2719;53.624;9.786;2022-12-31T15:34:26;4.03;;;0.63;;
5391;SDS011;2719;53.624;9.786;2022-12-31T15:36:55;1.37;;;0.80;;
5391;SDS011;2719;53.624;9.786;2022-12-31T15:39:25;3.70;;;0.70;;
5391;SDS011;2719;53.624;9.786;2022-12-31T15:44:59;1.10;;;0.50;;
5391;SDS011;2719;53.624;9.786;2022-12-31T15:47:33;2.80;;;0.87;;
5391;SDS011;2719;53.624;9.786;2022-12-31T15:50:03;4.50;;;0.60;;
5391;SDS011;2719;53.624;9.786;2022-12-31T15:52:35;2.30;;;0.60;;
5391;SDS011;2719;53.624;9.786;2022-12-31T15:55:05;2.23;;;0.57;;
5391;SDS011;2719;53.624;9.786;2022-12-31T15:57:37;2.13;;;0.50;;
5391;SDS011;2719;53.624;9.786;2022-12-31T16:00:06;5.27;;;0.60;;
5391;SDS011;2719;53.624;9.786;2022-12-31T16:02:39;1.00;;;0.60;;
5391;SDS011;2719;53.624;9.786;2022-12-31T16:05:14;1.20;;;0.60;;
5391;SDS011;2719;53.624;9.786;2022-12-31T16:07:43;1.80;;;0.60;;
5391;SDS011;2719;53.624;9.786;2022-12-31T16:10:13;1.67;;;0.70;;
5391;SDS011;2719;53.624;9.786;2022-12-31T16:12:44;6.53;;;1.10;;
5391;SDS011;2719;53.624;9.786;2022-12-31T16:15:17;2.00;;;0.80;;
5391;SDS011;2719;53.624;9.786;2022-12-31T16:17:55;4.10;;;1.17;;
5391;SDS011;2719;53.624;9.786;2022-12-31T16:20:24;3.23;;;0.80;;
5391;SDS011;2719;53.624;9.786;2022-12-31T16:22:54;2.00;;;0.90;;
5391;SDS011;2719;53.624;9.786;2022-12-31T16:25:22;2.60;;;0.80;;
5391;SDS011;2719;53.624;9.786;2022-12-31T16:27:51;1.73;;;0.77;;
5391;SDS011;2719;53.624;9.786;2022-12-31T16:30:19;2.70;;;0.50;;
5391;SDS011;2719;53.624;9.786;2022-12-31T16:32:47;2.63;;;0.70;;